Time;durP1;ratioP1;P1;durP2;ratioP2;P2;SDS_P1;SDS_P2;PMS_P1;PMS_P2;Temp;Humidity;BMP_temperature;BMP_pressure;BME280_temperature;BME280_humidity;BME280_pressure;Samples;Min_cycle;Max_cycle;Signal;HPM_P1;HPM_P2
2023/04/28 00:01:42;;;;;;;13.30;7.63;;;9.70;98.50;;;;;;5074215;28;20182;-88
2023/04/28 00:04:08;;;;;;;9.90;7.30;;;9.60;98.50;;;;;;5073925;28;20545;-89
2023/04/28 00:06:33;;;;;;;11.57;7.40;;;9.60;98.50;;;;;;5073621;28;20056;-89
2023/04/28 00:08:59;;;;;;;14.82;7.60;;;9.60;98.50;;;;;;5074551;28;20131;-89
2023/04/28 00:11:25;;;;;;;10.75;7.93;;;9.60;98.60;;;;;;5073686;28;20040;-88
2023/04/28 00:13:50;;;;;;;11.88;7.47;;;9.60;98.70;;;;;;5073897;28;20037;-90
2023/04/28 00:16:16;;;;;;;10.45;7.80;;;9.50;98.70;;;;;;5074176;28;20036;-89
2023/04/28 00:18:42;;;;;;;10.73;7.15;;;9.50;98.70;;;;;;5073812;28;20484;-89
2023/04/28 00:21:08;;;;;;;11.45;7.43;;;9.50;98.70;;;;;;5074132;28;20472;-89
2023/04/28 00:23:34;;;;;;;12.02;7.75;;;9.50;98.70;;;;;;5075762;28;20049;-89
2023/04/28 00:25:59;;;;;;;9.30;6.88;;;9.50;98.80;;;;;;5073959;28;20090;-89
2023/04/28 00:28:25;;;;;;;9.75;6.78;;;9.40;98.70;;;;;;5076558;28;20037;-90
2023/04/28 00:30:51;;;;;;;11.80;6.78;;;9.40;98.70;;;;;;5075432;28;20403;-89
2023/04/28 00:33:16;;;;;;;11.20;6.65;;;9.40;98.70;;;;;;5075894;28;20048;-91
2023/04/28 00:35:42;;;;;;;9.35;6.43;;;9.40;98.70;;;;;;5077188;28;20047;-90
2023/04/28 00:38:07;;;;;;;9.43;6.28;;;9.40;98.80;;;;;;5075327;28;20083;-90
2023/04/28 00:40:37;;;;;;;10.15;6.70;;;9.40;98.80;;;;;;5076031;28;20182;-90
2023/04/28 00:43:03;;;;;;;10.77;6.50;;;9.30;98.60;;;;;;5075786;28;20040;-90
2023/04/28 00:45:29;;;;;;;10.85;6.43;;;9.30;98.70;;;;;;5075893;28;20043;-90
2023/04/28 00:47:55;;;;;;;8.93;6.57;;;9.30;98.80;;;;;;5075679;28;20044;-89
2023/04/28 00:50:23;;;;;;;10.25;6.53;;;9.30;98.80;;;;;;5075175;28;20032;-90
2023/04/28 00:52:50;;;;;;;9.77;7.15;;;9.30;98.70;;;;;;5074555;28;20101;-89
2023/04/28 00:55:15;;;;;;;10.57;6.45;;;9.30;98.70;;;;;;5075618;28;20399;-90
2023/04/28 00:57:42;;;;;;;11.40;6.22;;;9.30;98.70;;;;;;5075233;28;20132;-90
2023/04/28 01:00:08;;;;;;;9.63;6.80;;;9.20;98.60;;;;;;5075491;28;20079;-90
2023/04/28 01:02:35;;;;;;;9.60;6.30;;;9.20;98.70;;;;;;5075775;28;20476;-90
2023/04/28 01:05:02;;;;;;;9.80;6.55;;;9.20;98.80;;;;;;5074884;28;20036;-90
2023/04/28 01:07:28;;;;;;;10.05;6.93;;;9.20;98.70;;;;;;5075817;28;20087;-89
2023/04/28 01:09:54;;;;;;;9.60;6.38;;;9.10;98.60;;;;;;5075914;28;20051;-90
2023/04/28 01:12:20;;;;;;;9.18;6.38;;;9.20;98.80;;;;;;5075483;28;20044;-92
2023/04/28 01:14:46;;;;;;;9.98;6.78;;;9.10;98.70;;;;;;5075578;28;20405;-92
2023/04/28 01:17:12;;;;;;;10.73;6.95;;;9.10;98.70;;;;;;5076408;28;20052;-90
2023/04/28 01:19:37;;;;;;;8.63;6.70;;;9.10;98.70;;;;;;5075397;28;20043;-89
2023/04/28 01:22:03;;;;;;;11.85;7.28;;;9.10;98.60;;;;;;5075131;28;20480;-91
2023/04/28 01:24:29;;;;;;;11.68;6.93;;;9.00;98.50;;;;;;5075626;28;20047;-91
2023/04/28 01:26:55;;;;;;;10.60;6.88;;;9.00;98.60;;;;;;5075921;28;20051;-92
2023/04/28 01:29:20;;;;;;;10.68;7.07;;;9.00;98.70;;;;;;5074643;28;20045;-91
2023/04/28 01:31:46;;;;;;;10.02;6.82;;;9.00;98.70;;;;;;5080149;28;20137;-91
2023/04/28 01:34:12;;;;;;;12.32;7.32;;;9.00;98.80;;;;;;5091893;28;20040;-90
2023/04/28 01:36:38;;;;;;;10.40;7.03;;;8.90;98.70;;;;;;5075865;28;20052;-91
2023/04/28 01:39:04;;;;;;;9.70;7.25;;;8.90;98.80;;;;;;5076473;28;20064;-91
2023/04/28 01:41:29;;;;;;;10.15;6.78;;;8.90;98.80;;;;;;5091923;28;20076;-91
2023/04/28 01:43:55;;;;;;;10.10;6.95;;;8.90;98.90;;;;;;5075814;28;20047;-91
2023/04/28 01:46:21;;;;;;;9.50;7.25;;;8.90;98.90;;;;;;5074782;28;20104;-91
2023/04/28 01:48:46;;;;;;;9.55;6.93;;;8.80;99.00;;;;;;5075463;28;20084;-90
2023/04/28 01:51:12;;;;;;;11.05;6.93;;;8.80;99.00;;;;;;5073778;28;20476;-91
2023/04/28 01:53:38;;;;;;;10.70;7.20;;;8.80;98.90;;;;;;5074976;28;20045;-90
2023/04/28 01:56:03;;;;;;;9.30;7.20;;;8.80;98.80;;;;;;5090880;28;20036;-90
2023/04/28 01:58:29;;;;;;;10.25;7.05;;;8.80;98.90;;;;;;5075465;28;20047;-91
2023/04/28 02:00:55;;;;;;;11.38;7.43;;;8.80;98.90;;;;;;5073146;28;20033;-89
2023/04/28 02:03:20;;;;;;;11.68;8.02;;;8.70;98.90;;;;;;5074514;28;20119;-90
2023/04/28 02:05:46;;;;;;;11.35;7.80;;;8.70;98.70;;;;;;5072683;28;20127;-88
2023/04/28 02:08:11;;;;;;;10.55;7.63;;;8.70;98.80;;;;;;5073549;28;20462;-91
2023/04/28 02:10:37;;;;;;;12.30;7.80;;;8.70;98.80;;;;;;5073912;28;20047;-90
2023/04/28 02:13:03;;;;;;;12.35;8.15;;;8.70;98.90;;;;;;5075130;28;20036;-91
2023/04/28 02:15:29;;;;;;;10.90;8.10;;;8.70;98.90;;;;;;5075148;28;20484;-91
2023/04/28 02:17:55;;;;;;;11.75;7.95;;;8.60;99.00;;;;;;5074303;28;20477;-92
2023/04/28 02:20:20;;;;;;;11.05;7.72;;;8.60;99.00;;;;;;5074503;28;20063;-89
2023/04/28 02:22:46;;;;;;;13.60;8.43;;;8.60;99.00;;;;;;5074170;28;20178;-90
2023/04/28 02:25:11;;;;;;;12.75;9.00;;;8.60;98.90;;;;;;5072481;28;20047;-90
2023/04/28 02:27:37;;;;;;;12.25;8.50;;;8.60;98.90;;;;;;5073283;28;20043;-90
2023/04/28 02:30:05;;;;;;;11.48;8.70;;;8.60;99.00;;;;;;5073849;28;20040;-89
2023/04/28 02:32:31;;;;;;;12.55;8.32;;;8.60;99.00;;;;;;5072981;28;20040;-91
2023/04/28 02:34:57;;;;;;;13.30;8.57;;;8.60;99.10;;;;;;5073223;28;20129;-92
2023/04/28 02:37:22;;;;;;;14.38;8.88;;;8.60;99.00;;;;;;5073069;28;20040;-91
2023/04/28 02:39:48;;;;;;;11.60;8.45;;;8.50;99.10;;;;;;5073048;28;20037;-91
2023/04/28 02:42:14;;;;;;;12.75;8.52;;;8.50;99.10;;;;;;5073864;28;20068;-90
2023/04/28 02:44:40;;;;;;;12.32;9.02;;;8.50;99.20;;;;;;5074328;28;20033;-91
2023/04/28 02:47:06;;;;;;;14.43;9.20;;;8.50;99.30;;;;;;5073358;28;20052;-91
2023/04/28 02:49:31;;;;;;;13.43;9.18;;;8.50;99.30;;;;;;5074779;28;20428;-91
2023/04/28 02:51:57;;;;;;;12.77;9.35;;;8.50;99.10;;;;;;5075251;28;20037;-92
2023/04/28 02:54:28;;;;;;;11.65;9.23;;;8.40;99.20;;;;;;5071285;28;20396;-90
2023/04/28 02:56:55;;;;;;;12.95;8.75;;;8.40;99.20;;;;;;5074019;28;20040;-90
2023/04/28 02:59:21;;;;;;;14.43;8.93;;;8.40;99.40;;;;;;5073334;28;20373;-90
2023/04/28 03:01:47;;;;;;;13.43;9.43;;;8.40;99.40;;;;;;5074273;28;20048;-91
2023/04/28 03:04:13;;;;;;;13.10;9.60;;;8.40;99.40;;;;;;5073401;28;20036;-90
2023/04/28 03:06:39;;;;;;;14.88;9.52;;;8.40;99.20;;;;;;5072126;28;20086;-87
2023/04/28 03:09:05;;;;;;;13.43;9.88;;;8.30;99.10;;;;;;5074308;28;20408;-90
2023/04/28 03:11:31;;;;;;;13.43;9.82;;;8.30;99.10;;;;;;5073367;28;20045;-91
2023/04/28 03:13:57;;;;;;;12.88;9.50;;;8.30;99.20;;;;;;5074234;28;20110;-91
2023/04/28 03:16:22;;;;;;;13.35;9.55;;;8.30;99.20;;;;;;5072980;28;20051;-90
2023/04/28 03:18:48;;;;;;;13.82;9.50;;;8.30;99.30;;;;;;5072931;28;20098;-90
2023/04/28 03:21:13;;;;;;;14.20;9.70;;;8.30;99.30;;;;;;5074312;28;20423;-91
2023/04/28 03:23:39;;;;;;;14.50;10.00;;;8.30;99.30;;;;;;5074162;28;20047;-91
2023/04/28 03:26:05;;;;;;;14.75;10.25;;;8.30;99.60;;;;;;5073720;28;20044;-91
2023/04/28 03:28:31;;;;;;;14.95;10.05;;;8.30;99.30;;;;;;5074645;28;20040;-91
2023/04/28 03:30:57;;;;;;;20.65;10.93;;;8.30;99.30;;;;;;5073991;28;20147;-92
2023/04/28 03:33:22;;;;;;;14.23;9.95;;;8.30;99.10;;;;;;5073774;28;20048;-90
2023/04/28 03:35:48;;;;;;;14.40;10.30;;;8.20;99.10;;;;;;5073147;28;20072;-91
2023/04/28 03:38:13;;;;;;;13.93;9.80;;;8.20;99.20;;;;;;5073881;28;20048;-91
2023/04/28 03:40:39;;;;;;;13.82;10.07;;;8.20;99.20;;;;;;5073081;28;20043;-91
2023/04/28 03:43:05;;;;;;;14.65;10.40;;;8.20;99.30;;;;;;5072988;28;20614;-90
2023/04/28 03:45:31;;;;;;;14.18;10.52;;;8.20;99.30;;;;;;5072804;28;20564;-90
2023/04/28 03:47:56;;;;;;;14.38;11.02;;;8.20;99.40;;;;;;5072914;28;20076;-90
2023/04/28 03:50:22;;;;;;;15.13;10.05;;;8.20;99.40;;;;;;5073434;28;20501;-91
2023/04/28 03:52:47;;;;;;;15.82;10.70;;;8.20;99.40;;;;;;5074274;28;20044;-90
2023/04/28 03:55:13;;;;;;;15.32;10.55;;;8.20;99.50;;;;;;5073949;28;20039;-91
2023/04/28 03:57:39;;;;;;;15.10;10.93;;;8.20;99.50;;;;;;5073160;28;20090;-91
2023/04/28 04:00:05;;;;;;;17.73;10.80;;;8.20;99.50;;;;;;5072982;28;20037;-91
2023/04/28 04:02:31;;;;;;;15.63;11.43;;;8.20;99.50;;;;;;5073192;28;20053;-91
2023/04/28 04:04:56;;;;;;;14.23;11.85;;;8.20;99.50;;;;;;5089660;28;20049;-91
2023/04/28 04:07:22;;;;;;;16.65;11.85;;;8.10;99.50;;;;;;5074230;28;20057;-89
2023/04/28 04:09:48;;;;;;;17.67;12.00;;;8.10;99.50;;;;;;5072974;28;20074;-90
2023/04/28 04:12:13;;;;;;;17.15;11.93;;;8.10;99.50;;;;;;5074290;28;20044;-91
2023/04/28 04:14:39;;;;;;;14.90;11.48;;;8.10;99.50;;;;;;5076032;28;20396;-91
2023/04/28 04:17:05;;;;;;;18.35;12.02;;;8.10;99.60;;;;;;5076300;28;20036;-91
2023/04/28 04:19:30;;;;;;;17.05;11.48;;;8.10;99.60;;;;;;5077734;28;20045;-91
2023/04/28 04:21:56;;;;;;;20.48;12.25;;;8.10;99.50;;;;;;5077433;28;20529;-90
2023/04/28 04:24:22;;;;;;;18.45;12.25;;;8.10;99.50;;;;;;5076049;28;20044;-90
2023/04/28 04:26:47;;;;;;;17.80;12.55;;;8.10;99.50;;;;;;5076825;28;20033;-89
2023/04/28 04:29:13;;;;;;;17.20;12.63;;;8.10;99.40;;;;;;5076285;28;20074;-90
2023/04/28 04:31:39;;;;;;;17.52;12.73;;;8.00;99.40;;;;;;5076661;28;20036;-91
2023/04/28 04:34:05;;;;;;;18.38;12.00;;;8.00;99.40;;;;;;5077412;28;20040;-90
2023/04/28 04:36:31;;;;;;;19.83;13.60;;;8.00;99.50;;;;;;5076277;28;20548;-90
2023/04/28 04:38:57;;;;;;;17.92;12.23;;;8.00;99.40;;;;;;5075690;28;20047;-91
2023/04/28 04:41:24;;;;;;;16.58;13.13;;;8.00;99.30;;;;;;5076054;28;20045;-91
2023/04/28 04:43:50;;;;;;;16.70;12.82;;;8.00;99.40;;;;;;5076946;28;20082;-90
2023/04/28 04:46:15;;;;;;;17.05;12.25;;;8.00;99.40;;;;;;5075069;28;20064;-90
2023/04/28 04:48:42;;;;;;;17.60;13.05;;;8.00;99.50;;;;;;5075539;28;20399;-90
2023/04/28 04:51:07;;;;;;;19.05;13.18;;;8.00;99.50;;;;;;5075306;28;20059;-89
2023/04/28 04:53:33;;;;;;;16.65;12.52;;;8.00;99.50;;;;;;5075435;28;20045;-89
2023/04/28 04:55:59;;;;;;;16.58;12.70;;;8.00;99.50;;;;;;5075870;28;20051;-90
2023/04/28 04:58:24;;;;;;;18.40;12.63;;;8.00;99.50;;;;;;5074645;28;20040;-91
2023/04/28 05:00:50;;;;;;;18.08;13.90;;;8.00;99.50;;;;;;5075610;28;20438;-91
2023/04/28 05:03:16;;;;;;;18.25;13.32;;;8.00;99.60;;;;;;5076610;28;20115;-90
2023/04/28 05:05:41;;;;;;;18.13;13.25;;;8.00;99.60;;;;;;5074657;28;20045;-90
2023/04/28 05:08:07;;;;;;;19.98;13.73;;;8.00;99.60;;;;;;5075670;28;20052;-90
2023/04/28 05:10:33;;;;;;;20.23;13.88;;;8.00;99.60;;;;;;5074862;28;20045;-89
2023/04/28 05:12:58;;;;;;;16.92;13.18;;;8.00;99.60;;;;;;5075022;28;20040;-92
2023/04/28 05:15:24;;;;;;;17.52;12.65;;;8.00;99.60;;;;;;5075282;28;20040;-91
2023/04/28 05:17:49;;;;;;;17.33;12.70;;;8.00;99.60;;;;;;5085485;28;20133;-90
2023/04/28 05:20:15;;;;;;;18.90;13.80;;;8.00;99.50;;;;;;5075443;28;20047;-90
2023/04/28 05:22:41;;;;;;;19.08;13.82;;;8.00;99.60;;;;;;5075218;28;20041;-90
2023/04/28 05:25:07;;;;;;;17.80;13.23;;;8.00;99.50;;;;;;5076582;28;20041;-90
2023/04/28 05:27:32;;;;;;;17.77;12.93;;;8.00;99.50;;;;;;5075955;28;20512;-90
2023/04/28 05:29:58;;;;;;;19.33;13.77;;;7.90;99.50;;;;;;5077323;28;20051;-91
2023/04/28 05:32:24;;;;;;;19.77;13.40;;;7.90;99.60;;;;;;5075752;28;20041;-89
2023/04/28 05:34:50;;;;;;;20.73;13.30;;;8.00;99.60;;;;;;5074691;28;20554;-90
2023/04/28 05:37:15;;;;;;;16.60;12.80;;;7.90;99.50;;;;;;5073930;28;20048;-90
2023/04/28 05:39:41;;;;;;;17.33;13.35;;;7.90;99.60;;;;;;5073601;28;20040;-88
2023/04/28 05:42:07;;;;;;;18.15;12.85;;;7.90;99.60;;;;;;5073582;28;20415;-90
2023/04/28 05:44:32;;;;;;;19.98;13.40;;;7.90;99.60;;;;;;5075166;28;20044;-91
2023/04/28 05:46:58;;;;;;;16.95;13.07;;;8.00;99.70;;;;;;5075864;28;20130;-89
2023/04/28 05:49:23;;;;;;;19.15;12.60;;;8.00;99.60;;;;;;5071787;28;20040;-92
2023/04/28 05:51:49;;;;;;;20.00;13.48;;;7.90;99.60;;;;;;5074369;28;20045;-91
2023/04/28 05:54:14;;;;;;;17.98;13.48;;;8.00;99.60;;;;;;5091727;28;20050;-91
2023/04/28 05:56:40;;;;;;;18.23;13.00;;;8.00;99.60;;;;;;5081459;28;20040;-90
2023/04/28 05:59:14;;;;;;;18.63;13.68;;;8.00;99.60;;;;;;5074183;28;20040;-94
2023/04/28 06:01:40;;;;;;;21.08;13.15;;;8.00;99.60;;;;;;5074281;28;20048;-91
2023/04/28 06:04:06;;;;;;;15.32;12.38;;;8.00;99.70;;;;;;5074461;28;20048;-91
2023/04/28 06:06:32;;;;;;;21.45;12.93;;;8.00;99.60;;;;;;5074579;28;20095;-89
2023/04/28 06:08:58;;;;;;;18.63;13.15;;;8.00;99.60;;;;;;5072294;28;20087;-87
2023/04/28 06:11:24;;;;;;;17.67;12.93;;;8.00;99.50;;;;;;5074043;28;20068;-87
2023/04/28 06:13:50;;;;;;;19.13;13.43;;;8.10;99.60;;;;;;5072774;28;20048;-88
2023/04/28 06:16:16;;;;;;;18.42;13.68;;;8.00;99.50;;;;;;5073681;28;20036;-89
2023/04/28 06:18:42;;;;;;;15.98;12.15;;;8.10;99.60;;;;;;5082171;28;20109;-88
2023/04/28 06:21:08;;;;;;;16.98;13.02;;;8.00;99.60;;;;;;5073929;28;20560;-89
2023/04/28 06:23:34;;;;;;;17.67;13.00;;;8.10;99.70;;;;;;5069294;28;20103;-88
2023/04/28 06:26:00;;;;;;;16.08;12.23;;;8.10;99.70;;;;;;5068517;28;20041;-88
2023/04/28 06:28:25;;;;;;;18.05;12.57;;;8.10;99.70;;;;;;5074283;28;20111;-88
2023/04/28 06:30:51;;;;;;;19.23;14.00;;;8.10;99.60;;;;;;5071486;28;20036;-87
2023/04/28 06:33:16;;;;;;;19.73;13.15;;;8.10;99.90;;;;;;5071957;28;20045;-87
2023/04/28 06:35:42;;;;;;;19.17;13.25;;;8.10;99.60;;;;;;5071906;28;20488;-89
2023/04/28 06:38:08;;;;;;;18.55;12.63;;;8.10;99.60;;;;;;5072199;28;20043;-87
2023/04/28 06:40:33;;;;;;;16.90;12.43;;;8.10;99.60;;;;;;5072252;28;20070;-89
2023/04/28 06:42:59;;;;;;;18.35;12.38;;;8.10;99.60;;;;;;5073391;28;20044;-87
2023/04/28 06:45:25;;;;;;;18.10;12.52;;;8.10;99.60;;;;;;5071784;28;20443;-87
2023/04/28 06:47:51;;;;;;;17.65;12.00;;;8.10;99.50;;;;;;5072866;28;20075;-88
2023/04/28 06:50:16;;;;;;;18.17;12.48;;;8.10;99.40;;;;;;5061607;28;20052;-90
2023/04/28 06:52:42;;;;;;;16.13;12.13;;;8.10;99.40;;;;;;5070519;28;20040;-88
2023/04/28 06:55:08;;;;;;;18.85;12.27;;;8.10;99.40;;;;;;5071983;28;20047;-91
2023/04/28 06:57:34;;;;;;;19.02;11.85;;;8.20;99.50;;;;;;5072152;28;20044;-93
2023/04/28 07:00:00;;;;;;;17.83;12.25;;;8.10;99.30;;;;;;5072538;28;20096;-88
2023/04/28 07:02:26;;;;;;;16.63;12.48;;;8.20;99.30;;;;;;5073416;28;20126;-87
2023/04/28 07:04:51;;;;;;;16.55;12.85;;;8.20;99.30;;;;;;5071292;28;20382;-87
2023/04/28 07:07:17;;;;;;;18.67;12.27;;;8.20;99.30;;;;;;5072001;28;20064;-88
2023/04/28 07:09:43;;;;;;;16.35;12.23;;;8.20;99.30;;;;;;5073432;28;20040;-88
2023/04/28 07:12:08;;;;;;;16.88;12.15;;;8.20;99.30;;;;;;5072742;28;20386;-88
2023/04/28 07:14:34;;;;;;;17.30;12.25;;;8.30;99.30;;;;;;5071883;28;20040;-88
2023/04/28 07:17:00;;;;;;;16.63;12.80;;;8.30;99.50;;;;;;5072624;28;20427;-88
2023/04/28 07:19:25;;;;;;;17.73;12.27;;;8.30;99.20;;;;;;5072077;28;20042;-88
2023/04/28 07:22:02;;;;;;;16.70;12.02;;;8.30;99.20;;;;;;5070942;28;20041;-88
2023/04/28 07:24:34;;;;;;;15.73;11.70;;;8.40;99.10;;;;;;5073360;28;20047;-88
2023/04/28 07:27:01;;;;;;;17.85;11.38;;;8.40;99.00;;;;;;5072701;28;20123;-88
2023/04/28 07:29:32;;;;;;;18.02;12.02;;;8.40;98.90;;;;;;5071902;28;20131;-88
2023/04/28 07:32:16;;;;;;;16.30;11.68;;;8.50;98.90;;;;;;5071937;28;20481;-88
2023/04/28 07:34:42;;;;;;;15.77;11.95;;;8.50;98.90;;;;;;5070853;28;20044;-88
2023/04/28 07:37:08;;;;;;;15.10;11.85;;;8.50;98.90;;;;;;5071844;28;20093;-87
2023/04/28 07:39:34;;;;;;;16.98;12.00;;;8.50;98.90;;;;;;5072692;28;20044;-87
2023/04/28 07:42:02;;;;;;;17.02;11.27;;;8.50;98.90;;;;;;5071508;28;20044;-88
2023/04/28 07:44:40;;;;;;;15.98;11.35;;;8.60;99.00;;;;;;5073046;28;20101;-88
2023/04/28 07:47:06;;;;;;;16.00;11.20;;;8.70;98.90;;;;;;5071963;28;20048;-88
2023/04/28 07:49:31;;;;;;;18.90;11.80;;;8.70;99.00;;;;;;5073953;28;20036;-88
2023/04/28 07:51:57;;;;;;;15.05;11.27;;;8.70;98.90;;;;;;5076710;28;20036;-87
2023/04/28 07:54:32;;;;;;;17.58;11.70;;;8.70;99.00;;;;;;5076088;28;20041;-88
2023/04/28 07:56:58;;;;;;;15.60;11.18;;;8.80;99.00;;;;;;5076717;28;20115;-87
2023/04/28 07:59:27;;;;;;;15.18;10.68;;;8.80;99.00;;;;;;5076732;28;20134;-88
2023/04/28 08:02:02;;;;;;;15.88;10.88;;;8.80;98.90;;;;;;5075976;28;20060;-88
2023/04/28 08:04:36;;;;;;;16.50;10.85;;;8.90;98.90;;;;;;5075562;28;20040;-88
2023/04/28 08:07:02;;;;;;;14.93;10.75;;;8.90;98.70;;;;;;5075081;28;20139;-88
2023/04/28 08:09:28;;;;;;;17.30;10.63;;;8.90;98.80;;;;;;5057006;22;20109;-88
2023/04/28 08:11:57;;;;;;;15.00;11.27;;;9.00;98.70;;;;;;5016276;28;20049;-88
2023/04/28 08:14:49;;;;;;;18.48;10.75;;;9.00;98.70;;;;;;5016901;28;20041;-88
2023/04/28 08:17:16;;;;;;;14.10;11.05;;;9.10;98.60;;;;;;5015645;28;20046;-88
2023/04/28 08:19:55;;;;;;;;;;;;;;;;;;;;;
2023/04/28 08:22:42;;;;;;;18.70;10.65;;;9.10;98.70;;;;;;5009986;28;20060;-88
2023/04/28 08:25:39;;;;;;;13.10;9.77;;;9.20;98.60;;;;;;5022267;22;20049;-87
2023/04/28 08:28:14;;;;;;;14.43;10.02;;;9.20;98.60;;;;;;5014819;28;20497;-88
2023/04/28 08:30:40;;;;;;;14.90;9.90;;;9.20;98.60;;;;;;5015413;28;20042;-88
2023/04/28 08:33:06;;;;;;;15.18;9.68;;;9.20;98.60;;;;;;5016245;28;20056;-88
2023/04/28 08:35:32;;;;;;;14.38;10.07;;;9.30;98.60;;;;;;5015713;28;20088;-89
2023/04/28 08:37:57;;;;;;;14.32;10.02;;;9.30;98.70;;;;;;5014338;28;20042;-89
2023/04/28 08:40:24;;;;;;;15.02;10.25;;;9.30;98.70;;;;;;5015277;28;20069;-89
2023/04/28 08:42:50;;;;;;;15.93;10.02;;;9.30;98.70;;;;;;5016501;28;20077;-90
2023/04/28 08:45:16;;;;;;;17.80;10.73;;;9.30;98.70;;;;;;5015453;28;20096;-89
2023/04/28 08:47:46;;;;;;;14.25;9.52;;;9.30;98.80;;;;;;5021797;22;20532;-89
2023/04/28 08:50:13;;;;;;;15.07;9.98;;;9.30;98.90;;;;;;5015645;28;20034;-89
2023/04/28 08:52:40;;;;;;;15.70;10.52;;;9.30;98.90;;;;;;5015775;28;20049;-91
2023/04/28 08:55:11;;;;;;;15.63;10.50;;;9.40;99.00;;;;;;5016206;28;20136;-89
2023/04/28 08:57:50;;;;;;;16.55;11.27;;;9.40;99.00;;;;;;5015142;28;20468;-90
2023/04/28 09:00:16;;;;;;;12.32;10.00;;;9.50;99.10;;;;;;5015935;28;20041;-89
2023/04/28 09:02:42;;;;;;;16.23;10.95;;;9.50;99.20;;;;;;5015320;28;20501;-90
2023/04/28 09:05:11;;;;;;;14.80;9.85;;;9.60;99.20;;;;;;5014686;28;20076;-90
2023/04/28 09:07:37;;;;;;;14.15;10.25;;;9.70;99.30;;;;;;5014731;28;20145;-89
2023/04/28 09:10:17;;;;;;;13.27;9.98;;;9.70;99.30;;;;;;5016253;28;20042;-90
2023/04/28 09:12:43;;;;;;;15.00;9.80;;;9.90;99.10;;;;;;5014935;28;20478;-89
2023/04/28 09:15:09;;;;;;;13.80;10.18;;;9.90;99.00;;;;;;5016434;28;20038;-90
2023/04/28 09:17:51;;;;;;;14.07;9.95;;;9.90;98.90;;;;;;5031082;28;20053;-89
2023/04/28 09:20:21;;;;;;;12.52;9.30;;;10.00;98.80;;;;;;5014897;28;20037;-89
2023/04/28 09:22:49;;;;;;;12.15;9.48;;;10.10;98.80;;;;;;5021421;22;20049;-88
2023/04/28 09:25:15;;;;;;;14.02;9.50;;;10.10;98.80;;;;;;5031197;28;20053;-89
2023/04/28 09:27:41;;;;;;;12.93;9.75;;;10.10;98.80;;;;;;5013258;28;20071;-89
2023/04/28 09:30:08;;;;;;;14.18;9.88;;;10.20;98.70;;;;;;5015667;28;20042;-89
2023/04/28 09:32:35;;;;;;;12.55;10.15;;;10.20;98.70;;;;;;5013404;28;20172;-89
2023/04/28 09:35:02;;;;;;;12.32;9.70;;;10.20;98.70;;;;;;5014415;28;20042;-89
2023/04/28 09:37:46;;;;;;;15.07;10.70;;;10.30;98.70;;;;;;5014828;28;20402;-89
2023/04/28 09:40:12;;;;;;;10.73;8.48;;;10.30;98.70;;;;;;5013359;28;20512;-90
2023/04/28 09:42:40;;;;;;;12.65;9.52;;;10.30;98.70;;;;;;5030429;28;20050;-88
2023/04/28 09:45:25;;;;;;;12.50;9.80;;;10.40;98.70;;;;;;5015182;28;20444;-88
2023/04/28 09:47:51;;;;;;;13.77;9.45;;;10.40;98.70;;;;;;5012882;28;20119;-89
2023/04/28 09:50:17;;;;;;;13.45;9.45;;;10.50;98.70;;;;;;5013664;28;20473;-89
2023/04/28 09:52:47;;;;;;;15.88;9.95;;;10.50;98.70;;;;;;5013657;28;20108;-88
2023/04/28 09:55:14;;;;;;;16.75;9.55;;;10.50;98.60;;;;;;5013976;28;20045;-89
2023/04/28 09:57:41;;;;;;;15.05;10.27;;;10.60;98.60;;;;;;5013144;28;20053;-89
2023/04/28 10:00:08;;;;;;;16.40;10.48;;;10.60;98.70;;;;;;5014454;28;20038;-88
2023/04/28 10:02:35;;;;;;;13.00;9.48;;;10.70;98.80;;;;;;5012487;28;20064;-89
2023/04/28 10:05:02;;;;;;;13.02;9.35;;;10.80;98.90;;;;;;5014201;28;20042;-88
2023/04/28 10:07:29;;;;;;;12.65;9.65;;;10.90;98.80;;;;;;5014377;28;20053;-88
2023/04/28 10:09:55;;;;;;;14.27;9.70;;;10.90;98.70;;;;;;5012351;28;20042;-89
2023/04/28 10:15:54;;;;;;;13.18;9.40;;;11.00;98.30;;;;;;4982794;28;20046;-89
2023/04/28 10:19:03;;;;;;;11.00;8.70;;;11.10;98.50;;;;;;5018913;28;20041;-88
2023/04/28 10:21:32;;;;;;;12.45;9.48;;;11.10;98.40;;;;;;5013291;28;20479;-89
2023/04/28 10:24:31;;;;;;;14.18;9.73;;;11.20;98.60;;;;;;5013264;28;20057;-89
2023/04/28 10:27:06;;;;;;;13.13;9.18;;;11.30;98.50;;;;;;5013730;28;20057;-89
2023/04/28 10:29:33;;;;;;;12.32;8.90;;;11.30;98.50;;;;;;5011760;28;20081;-89
2023/04/28 10:32:33;;;;;;;12.48;9.48;;;11.40;98.50;;;;;;5012825;28;20049;-89
2023/04/28 10:35:36;;;;;;;12.02;9.52;;;11.50;98.80;;;;;;5012313;28;20555;-89
2023/04/28 10:38:18;;;;;;;13.25;8.75;;;11.60;98.30;;;;;;4977078;28;20081;-88
2023/04/28 10:41:10;;;;;;;14.15;9.30;;;11.60;98.40;;;;;;5012494;28;20037;-89
2023/04/28 10:43:38;;;;;;;14.82;8.95;;;11.70;98.40;;;;;;5008758;28;20128;-89
2023/04/28 10:46:05;;;;;;;12.10;8.45;;;11.80;98.20;;;;;;5013077;28;20478;-89
2023/04/28 10:48:46;;;;;;;12.00;8.52;;;11.80;98.00;;;;;;5015366;28;20472;-89
2023/04/28 10:51:15;;;;;;;12.75;8.50;;;11.90;97.90;;;;;;5013026;28;20125;-88
2023/04/28 10:53:52;;;;;;;12.88;8.25;;;12.00;97.90;;;;;;5013277;28;20100;-89
2023/04/28 10:56:44;;;;;;;15.00;8.30;;;12.00;97.70;;;;;;5013486;28;20125;-89
2023/04/28 10:59:25;;;;;;;12.98;8.18;;;12.00;97.80;;;;;;5012700;28;20053;-89
2023/04/28 11:01:51;;;;;;;11.55;8.25;;;12.10;97.60;;;;;;5012001;28;20046;-88
2023/04/28 11:04:16;;;;;;;13.15;8.95;;;12.10;98.00;;;;;;5011158;28;20065;-89
2023/04/28 11:06:44;;;;;;;11.82;8.77;;;12.10;97.70;;;;;;5028401;28;20045;-87
2023/04/28 11:12:00;;;;;;;12.65;8.82;;;12.20;97.60;;;;;;5023406;28;20100;-88
2023/04/28 11:18:22;;;;;;;12.65;8.52;;;12.30;97.60;;;;;;5035552;22;20131;-90
2023/04/28 11:21:13;;;;;;;14.00;9.13;;;12.40;97.60;;;;;;5074598;28;20150;-89
2023/04/28 11:24:03;;;;;;;13.02;8.60;;;12.40;97.60;;;;;;5080952;28;20052;-92
2023/04/28 11:26:52;;;;;;;12.70;8.30;;;12.50;97.60;;;;;;5069748;28;20559;-91
2023/04/28 11:29:54;;;;;;;11.20;8.07;;;12.60;97.60;;;;;;5074990;28;20079;-92
2023/04/28 11:32:40;;;;;;;11.48;8.05;;;12.70;97.60;;;;;;5071961;28;20072;-92
2023/04/28 11:35:19;;;;;;;10.05;7.88;;;12.70;97.40;;;;;;5093647;28;20050;-90
2023/04/28 11:38:23;;;;;;;12.07;8.13;;;12.80;97.30;;;;;;5093852;28;20054;-91
2023/04/28 11:48:45;;;;;;;12.35;8.63;;;12.90;97.20;;;;;;5063763;28;20101;-92
2023/04/28 12:58:38;;;;;;;13.98;8.93;;;13.60;99.30;;;;;;4791838;29;20062;-92
2023/04/28 13:01:04;;;;;;;10.52;8.65;;;13.60;99.50;;;;;;4805686;29;20436;-90
2023/04/28 13:03:29;;;;;;;11.75;9.23;;;13.60;99.60;;;;;;4817518;29;20062;-89
2023/04/28 13:05:55;;;;;;;13.55;8.95;;;13.60;99.70;;;;;;4811342;29;20547;-93
2023/04/28 13:08:32;;;;;;;14.55;9.07;;;13.70;99.80;;;;;;4810933;29;20453;-92
2023/04/28 13:14:04;;;;;;;11.88;9.85;;;13.60;99.90;;;;;;4826625;29;20408;-90
2023/04/28 13:16:54;;;;;;;12.50;10.32;;;13.60;99.90;;;;;;4855158;24;20049;-92
2023/04/28 13:19:26;;;;;;;14.93;10.50;;;13.60;99.90;;;;;;4827872;29;20439;-91
2023/04/28 13:22:24;;;;;;;;;;;;;;;;;;;;;
2023/04/28 13:25:09;;;;;;;15.68;12.15;;;13.60;99.90;;;;;;4840900;29;20390;-91
2023/04/28 13:28:01;;;;;;;13.93;10.73;;;13.60;99.90;;;;;;4845312;29;20053;-95
2023/04/28 13:30:26;;;;;;;15.35;11.70;;;13.60;99.90;;;;;;4835600;29;20045;-95
2023/04/28 13:33:30;;;;;;;15.00;12.57;;;13.60;99.90;;;;;;4852411;29;20046;-93
2023/04/28 13:35:58;;;;;;;16.33;11.75;;;13.60;99.90;;;;;;4854607;29;20409;-95
2023/04/28 13:38:56;;;;;;;14.52;12.30;;;13.60;99.90;;;;;;4855702;29;20068;-96
2023/04/28 13:41:23;;;;;;;16.63;13.77;;;13.60;99.90;;;;;;4850952;29;20061;-96
2023/04/28 13:43:49;;;;;;;14.02;11.55;;;13.60;99.90;;;;;;4836342;29;20137;-96
2023/04/28 13:46:19;;;;;;;17.65;14.32;;;13.60;99.90;;;;;;4840395;29;20065;-96
2023/04/28 13:48:45;;;;;;;15.48;13.57;;;13.60;99.90;;;;;;4849735;29;20062;-94
2023/04/28 13:51:12;;;;;;;21.52;15.75;;;13.60;99.90;;;;;;4834545;29;20110;-95
2023/04/28 13:53:38;;;;;;;17.08;15.05;;;13.60;99.90;;;;;;4839804;29;20065;-96
2023/04/28 13:56:05;;;;;;;18.38;14.25;;;13.60;99.90;;;;;;4832000;29;20046;-96
2023/04/28 14:01:39;;;;;;;19.90;16.10;;;13.60;99.90;;;;;;5149371;23;20062;-96
2023/04/28 14:04:05;;;;;;;19.40;17.38;;;13.60;99.90;;;;;;4827150;29;20061;-92
2023/04/28 14:06:31;;;;;;;14.68;12.93;;;13.60;99.90;;;;;;4830425;29;20050;-96
2023/04/28 14:08:57;;;;;;;15.10;13.50;;;13.60;99.90;;;;;;4855958;29;20166;-96
2023/04/28 14:11:23;;;;;;;22.15;19.85;;;13.60;99.90;;;;;;4869552;29;20030;-96
2023/04/28 14:13:48;;;;;;;19.00;16.88;;;13.60;99.90;;;;;;4859935;29;20056;-94
2023/04/28 14:16:14;;;;;;;19.08;16.80;;;13.60;99.90;;;;;;4845391;29;20053;-94
2023/04/28 14:18:40;;;;;;;19.60;16.77;;;13.60;99.90;;;;;;4848282;29;20045;-94
2023/04/28 14:21:09;;;;;;;19.40;17.33;;;13.60;99.90;;;;;;4847615;29;20896;-96